createdAt,value
2023-05-14T00:01:08.826Z,12.82
2023-05-14T00:06:12.707Z,10.05
2023-05-14T00:11:19.365Z,13.57
2023-05-14T00:16:23.045Z,12.27
2023-05-14T00:21:27.050Z,12.15
2023-05-14T00:26:33.046Z,15.70
2023-05-14T00:31:36.383Z,12.27
2023-05-14T00:36:43.344Z,10.73
2023-05-14T00:41:49.217Z,11.77
2023-05-14T00:46:54.382Z,12.57
2023-05-14T00:51:59.347Z,18.40
2023-05-14T00:57:06.710Z,11.43
2023-05-14T01:02:11.150Z,12.10
2023-05-14T01:07:20.804Z,11.07
2023-05-14T01:12:34.540Z,14.40
2023-05-14T01:17:42.632Z,11.77
2023-05-14T01:22:47.822Z,12.18
2023-05-14T01:28:00.809Z,11.90
2023-05-14T01:33:14.534Z,12.80
2023-05-14T01:38:22.303Z,12.52
2023-05-14T01:43:26.119Z,10.93
2023-05-14T01:48:30.837Z,13.43
2023-05-14T01:53:38.252Z,15.55
2023-05-14T01:58:41.397Z,14.48
2023-05-14T02:03:45.073Z,12.60
2023-05-14T02:08:50.634Z,12.93
2023-05-14T02:13:53.975Z,12.75
2023-05-14T02:18:58.836Z,12.25
2023-05-14T02:24:04.506Z,13.32
2023-05-14T02:29:10.110Z,13.80
2023-05-14T02:34:15.970Z,12.13
2023-05-14T02:39:21.394Z,15.30
2023-05-14T02:44:25.264Z,12.98
2023-05-14T02:49:29.380Z,15.83
2023-05-14T02:54:35.152Z,11.50
2023-05-14T02:59:41.913Z,12.77
2023-05-14T03:04:46.006Z,14.98
2023-05-14T03:09:51.347Z,11.23
2023-05-14T03:14:55.812Z,15.85
2023-05-14T03:20:00.164Z,12.95
2023-05-14T03:25:05.920Z,12.30
2023-05-14T03:30:13.607Z,15.20
2023-05-14T03:35:18.290Z,14.80
2023-05-14T03:40:24.458Z,13.07
2023-05-14T03:45:31.191Z,14.80
2023-05-14T03:50:36.340Z,13.03
2023-05-14T03:55:44.896Z,14.07
2023-05-14T04:00:48.830Z,15.07
2023-05-14T04:05:53.049Z,12.37
2023-05-14T04:10:58.722Z,13.23
2023-05-14T04:16:02.549Z,15.03
2023-05-14T04:21:07.596Z,14.57
2023-05-14T04:26:12.031Z,15.23
2023-05-14T04:31:15.791Z,12.32
2023-05-14T04:36:20.009Z,15.83
2023-05-14T04:41:26.815Z,12.00
2023-05-14T04:46:31.421Z,11.33
2023-05-14T04:51:34.101Z,12.40
2023-05-14T04:56:38.140Z,12.68
2023-05-14T05:01:40.904Z,11.73
2023-05-14T05:06:43.615Z,11.38
2023-05-14T05:11:47.851Z,10.90
2023-05-14T05:16:50.507Z,11.65
2023-05-14T05:21:53.284Z,13.85
2023-05-14T05:26:57.314Z,9.65
2023-05-14T05:32:00.425Z,9.40
2023-05-14T05:37:03.196Z,11.27
2023-05-14T05:42:08.532Z,12.27
2023-05-14T05:47:11.197Z,10.38
2023-05-14T05:52:13.930Z,8.68
2023-05-14T05:57:17.961Z,9.95
2023-05-14T06:02:20.757Z,9.60
2023-05-14T06:07:24.481Z,8.00
2023-05-14T06:12:28.719Z,10.73
2023-05-14T06:17:31.460Z,10.57
2023-05-14T06:22:34.218Z,9.15
2023-05-14T06:27:38.213Z,7.97
2023-05-14T06:32:40.910Z,7.50
2023-05-14T06:37:43.576Z,7.43
2023-05-14T06:42:47.778Z,8.75
2023-05-14T06:47:50.466Z,9.27
2023-05-14T06:52:53.136Z,6.63
2023-05-14T06:57:57.179Z,12.18
2023-05-14T07:02:59.950Z,9.23
2023-05-14T07:08:02.758Z,8.68
2023-05-14T07:13:06.953Z,6.97
2023-05-14T07:18:09.671Z,12.63
2023-05-14T07:23:12.360Z,9.13
2023-05-14T07:28:16.404Z,8.70
2023-05-14T07:33:19.028Z,9.70
2023-05-14T07:38:21.830Z,4.97
2023-05-14T07:43:25.837Z,8.43
2023-05-14T07:48:28.531Z,5.95
2023-05-14T07:53:31.338Z,4.72
2023-05-14T07:58:35.944Z,4.85
2023-05-14T08:03:38.622Z,5.40
2023-05-14T08:08:41.545Z,4.13
2023-05-14T08:13:45.552Z,6.30
2023-05-14T08:18:49.281Z,4.43
2023-05-14T08:23:51.928Z,5.70
2023-05-14T08:28:55.935Z,4.05
2023-05-14T08:33:58.590Z,4.00
2023-05-14T08:39:01.232Z,4.32
2023-05-14T08:44:09.758Z,6.57
2023-05-14T08:49:22.827Z,6.13
2023-05-14T08:54:27.041Z,5.18
2023-05-14T08:59:31.121Z,4.60
2023-05-14T09:04:34.557Z,6.03
2023-05-14T09:09:38.498Z,5.30
2023-05-14T09:14:42.862Z,6.93
2023-05-14T09:19:47.359Z,6.57
2023-05-14T09:25:04.600Z,6.13
2023-05-14T09:30:10.855Z,6.75
2023-05-14T09:35:17.449Z,4.85
2023-05-14T09:40:21.650Z,4.35
2023-05-14T09:45:26.438Z,5.72
2023-05-14T09:50:29.168Z,5.10
2023-05-14T09:55:32.885Z,4.97
2023-05-14T10:00:37.610Z,4.78
2023-05-14T10:05:42.037Z,3.35
2023-05-14T10:10:44.726Z,3.45
2023-05-14T10:15:50.214Z,6.70
2023-05-14T10:21:05.615Z,4.65
2023-05-14T10:26:08.923Z,4.10
2023-05-14T10:31:14.606Z,3.38
2023-05-14T10:36:18.811Z,4.50
2023-05-14T10:41:21.878Z,3.70
2023-05-14T10:46:26.540Z,3.25
2023-05-14T10:51:29.311Z,3.35
2023-05-14T10:56:32.157Z,3.17
2023-05-14T11:01:36.236Z,6.18
2023-05-14T11:06:39.936Z,5.68
2023-05-14T11:11:42.655Z,5.18
2023-05-14T11:16:48.040Z,3.92
2023-05-14T11:21:50.948Z,4.35
2023-05-14T11:26:55.696Z,6.57
2023-05-14T11:31:59.861Z,5.50
2023-05-14T11:37:05.237Z,3.88
2023-05-14T11:42:14.514Z,3.70
2023-05-14T11:47:19.608Z,5.70
2023-05-14T11:52:22.554Z,3.45
2023-05-14T11:57:25.547Z,3.55
2023-05-14T12:02:30.089Z,1.95
2023-05-14T12:07:32.893Z,3.58
2023-05-14T12:12:37.503Z,4.35
2023-05-14T12:17:42.006Z,4.78
2023-05-14T12:22:44.720Z,2.80
2023-05-14T12:27:47.471Z,3.92
2023-05-14T12:32:52.792Z,4.38
2023-05-14T12:37:55.837Z,2.67
2023-05-14T12:42:58.516Z,3.28
2023-05-14T12:48:02.714Z,2.67
2023-05-14T12:53:05.645Z,2.47
2023-05-14T12:58:08.340Z,3.20
2023-05-14T13:03:12.427Z,3.13
2023-05-14T13:08:17.855Z,5.80
2023-05-14T13:13:20.766Z,3.50
2023-05-14T13:18:26.618Z,4.97
2023-05-14T13:23:29.482Z,4.38
2023-05-14T13:28:32.123Z,4.75
2023-05-14T13:33:38.469Z,3.67
2023-05-14T13:38:41.215Z,3.25
2023-05-14T13:43:43.860Z,4.80
2023-05-14T13:48:47.935Z,5.70
2023-05-14T13:53:50.738Z,5.90
2023-05-14T13:58:53.612Z,3.88
2023-05-14T14:03:57.746Z,3.83
2023-05-14T14:09:00.406Z,3.20
2023-05-14T14:14:03.050Z,4.20
2023-05-14T14:19:08.039Z,10.52
2023-05-14T14:24:10.753Z,7.63
2023-05-14T14:29:13.386Z,5.07
2023-05-14T14:34:17.439Z,6.20
2023-05-14T14:39:20.104Z,4.80
2023-05-14T14:44:22.854Z,4.20
2023-05-14T14:49:27.734Z,4.03
2023-05-14T14:54:30.388Z,2.92
2023-05-14T14:59:33.017Z,2.97
2023-05-14T15:04:37.940Z,3.47
2023-05-14T15:09:40.606Z,3.60
2023-05-14T15:14:43.389Z,2.85
2023-05-14T15:19:47.560Z,3.78
2023-05-14T15:24:50.426Z,5.03
2023-05-14T15:29:53.135Z,2.60
2023-05-14T15:34:57.377Z,4.63
2023-05-14T15:40:00.068Z,3.90
2023-05-14T15:45:02.876Z,3.65
2023-05-14T15:50:08.686Z,3.20
2023-05-14T15:55:11.723Z,6.38
2023-05-14T16:00:15.105Z,4.78
2023-05-14T16:05:19.180Z,6.70
2023-05-14T16:10:22.751Z,8.45
2023-05-14T16:15:26.485Z,4.32
2023-05-14T16:20:31.943Z,4.53
2023-05-14T16:25:38.292Z,4.55
2023-05-14T16:30:41.757Z,2.75
2023-05-14T16:35:46.299Z,3.22
2023-05-14T16:40:51.841Z,4.43
2023-05-14T16:45:54.729Z,2.95
2023-05-14T16:51:21.628Z,2.72
2023-05-14T16:56:35.510Z,4.53
2023-05-14T17:01:46.464Z,5.57
2023-05-14T17:07:46.601Z,4.88
2023-05-14T17:32:05.437Z,3.85
2023-05-14T17:37:06.788Z,6.07
2023-05-14T17:42:10.083Z,4.00
2023-05-14T17:47:14.216Z,3.50
2023-05-14T17:52:16.939Z,3.65
2023-05-14T17:57:19.648Z,4.13
2023-05-14T18:02:23.662Z,5.18
2023-05-14T18:07:26.576Z,5.15
2023-05-14T18:12:29.330Z,10.27
2023-05-14T18:17:33.387Z,5.35
2023-05-14T18:22:36.159Z,4.07
2023-05-14T18:27:44.130Z,4.75
2023-05-14T18:32:48.182Z,5.20
2023-05-14T18:37:50.947Z,9.02
2023-05-14T18:42:53.648Z,4.47
2023-05-14T18:47:57.785Z,7.35
2023-05-14T18:53:00.546Z,4.95
2023-05-14T18:58:03.339Z,3.08
2023-05-14T19:03:07.566Z,4.00
2023-05-14T19:08:10.458Z,3.28
2023-05-14T19:13:13.125Z,5.43
2023-05-14T19:18:17.644Z,4.60
2023-05-14T19:23:20.333Z,3.83
2023-05-14T19:28:23.137Z,2.83
2023-05-14T19:33:27.648Z,4.35
2023-05-14T19:38:30.594Z,3.83
2023-05-14T19:43:33.259Z,4.70
2023-05-14T19:48:38.709Z,4.15
2023-05-14T19:53:41.420Z,3.00
2023-05-14T19:58:44.231Z,4.53
2023-05-14T20:03:48.249Z,3.20
2023-05-14T20:08:51.471Z,3.40
2023-05-14T20:13:54.154Z,3.70
2023-05-14T20:18:58.330Z,4.70
2023-05-14T20:24:01.110Z,3.90
2023-05-14T20:29:03.984Z,3.25
2023-05-14T20:34:08.012Z,2.45
2023-05-14T20:39:11.683Z,3.78
2023-05-14T20:44:14.466Z,3.97
2023-05-14T20:49:18.517Z,4.63
2023-05-14T20:54:21.217Z,3.08
2023-05-14T20:59:23.861Z,3.75
2023-05-14T21:04:28.135Z,5.07
2023-05-14T21:09:30.917Z,4.35
2023-05-14T21:14:33.736Z,4.85
2023-05-14T21:19:37.794Z,6.82
2023-05-14T21:24:40.592Z,4.57
2023-05-14T21:29:44.763Z,3.28
2023-05-14T21:34:48.743Z,3.65
2023-05-14T21:39:51.881Z,5.07
2023-05-14T21:44:54.588Z,6.82
2023-05-14T21:49:58.520Z,7.22
2023-05-14T21:55:01.158Z,3.95
2023-05-14T22:00:07.643Z,4.00
2023-05-14T22:05:11.774Z,3.03
2023-05-14T22:10:15.640Z,4.28
2023-05-14T22:15:18.323Z,5.13
2023-05-14T22:20:22.481Z,4.97
2023-05-14T22:25:25.797Z,4.60
2023-05-14T22:30:28.813Z,4.40
2023-05-14T22:35:32.884Z,5.32
2023-05-14T22:40:35.563Z,5.63
2023-05-14T22:45:38.263Z,4.10
2023-05-14T22:50:42.228Z,4.70
2023-05-14T22:55:44.878Z,4.32
2023-05-14T23:00:47.553Z,4.28
2023-05-14T23:05:52.015Z,4.43
2023-05-14T23:10:54.748Z,6.30
2023-05-14T23:15:57.528Z,4.55
2023-05-14T23:21:01.517Z,5.82
2023-05-14T23:26:04.674Z,6.15
2023-05-14T23:31:07.507Z,5.13
2023-05-14T23:36:50.068Z,4.88
2023-05-14T23:42:37.198Z,5.15
2023-05-14T23:53:42.716Z,5.05
2023-05-14T23:59:15.112Z,6.00
